sensor_id;sensor_type;location;lat;lon;timestamp;P1;durP1;ratioP1;P2;durP2;ratioP2
14603;SDS011;7388;51.078;13.740;2022-08-18T00:00:28;4.77;;;3.80;;
14603;SDS011;7388;51.078;13.740;2022-08-18T00:03:00;6.60;;;4.10;;
14603;SDS011;7388;51.078;13.740;2022-08-18T00:05:31;6.83;;;4.60;;
14603;SDS011;7388;51.078;13.740;2022-08-18T00:07:57;4.90;;;3.87;;
14603;SDS011;7388;51.078;13.740;2022-08-18T00:10:24;7.27;;;4.57;;
14603;SDS011;7388;51.078;13.740;2022-08-18T00:12:50;6.47;;;3.80;;
14603;SDS011;7388;51.078;13.740;2022-08-18T00:15:16;4.80;;;4.17;;
14603;SDS011;7388;51.078;13.740;2022-08-18T00:17:43;4.73;;;3.90;;
14603;SDS011;7388;51.078;13.740;2022-08-18T00:20:14;4.90;;;4.10;;
14603;SDS011;7388;51.078;13.740;2022-08-18T00:22:42;5.47;;;4.40;;
14603;SDS011;7388;51.078;13.740;2022-08-18T00:25:08;5.10;;;4.47;;
14603;SDS011;7388;51.078;13.740;2022-08-18T00:27:36;6.30;;;5.60;;
14603;SDS011;7388;51.078;13.740;2022-08-18T00:30:05;5.97;;;4.13;;
14603;SDS011;7388;51.078;13.740;2022-08-18T00:32:40;7.03;;;5.40;;
14603;SDS011;7388;51.078;13.740;2022-08-18T00:35:10;9.80;;;5.13;;
14603;SDS011;7388;51.078;13.740;2022-08-18T00:37:40;6.10;;;5.17;;
14603;SDS011;7388;51.078;13.740;2022-08-18T00:40:06;6.77;;;4.20;;
14603;SDS011;7388;51.078;13.740;2022-08-18T00:42:39;6.30;;;4.93;;
14603;SDS011;7388;51.078;13.740;2022-08-18T00:45:15;7.10;;;5.10;;
14603;SDS011;7388;51.078;13.740;2022-08-18T00:47:44;6.30;;;5.23;;
14603;SDS011;7388;51.078;13.740;2022-08-18T00:50:15;6.07;;;4.70;;
14603;SDS011;7388;51.078;13.740;2022-08-18T00:52:55;6.17;;;4.53;;
14603;SDS011;7388;51.078;13.740;2022-08-18T00:55:51;5.80;;;5.00;;
14603;SDS011;7388;51.078;13.740;2022-08-18T00:58:23;5.97;;;4.80;;
14603;SDS011;7388;51.078;13.740;2022-08-18T01:00:58;5.60;;;4.30;;
14603;SDS011;7388;51.078;13.740;2022-08-18T01:03:27;6.20;;;5.60;;
14603;SDS011;7388;51.078;13.740;2022-08-18T01:05:57;5.83;;;4.93;;
14603;SDS011;7388;51.078;13.740;2022-08-18T01:08:27;5.20;;;4.27;;
14603;SDS011;7388;51.078;13.740;2022-08-18T01:10:53;5.87;;;4.50;;
14603;SDS011;7388;51.078;13.740;2022-08-18T01:13:19;6.00;;;4.23;;
14603;SDS011;7388;51.078;13.740;2022-08-18T01:15:49;5.90;;;5.30;;
14603;SDS011;7388;51.078;13.740;2022-08-18T01:18:15;5.67;;;4.37;;
14603;SDS011;7388;51.078;13.740;2022-08-18T01:24:04;7.30;;;4.60;;
14603;SDS011;7388;51.078;13.740;2022-08-18T01:26:34;4.60;;;3.70;;
14603;SDS011;7388;51.078;13.740;2022-08-18T01:29:04;5.70;;;5.10;;
14603;SDS011;7388;51.078;13.740;2022-08-18T01:31:39;6.47;;;4.57;;
14603;SDS011;7388;51.078;13.740;2022-08-18T01:34:11;6.63;;;5.40;;
14603;SDS011;7388;51.078;13.740;2022-08-18T01:36:38;7.83;;;5.00;;
14603;SDS011;7388;51.078;13.740;2022-08-18T01:39:07;5.60;;;4.77;;
14603;SDS011;7388;51.078;13.740;2022-08-18T01:41:36;5.10;;;4.60;;
14603;SDS011;7388;51.078;13.740;2022-08-18T01:44:03;6.37;;;5.33;;
14603;SDS011;7388;51.078;13.740;2022-08-18T01:46:30;6.47;;;4.77;;
14603;SDS011;7388;51.078;13.740;2022-08-18T01:48:58;6.67;;;5.70;;
14603;SDS011;7388;51.078;13.740;2022-08-18T01:51:25;6.03;;;5.10;;
14603;SDS011;7388;51.078;13.740;2022-08-18T01:53:54;8.10;;;6.13;;
14603;SDS011;7388;51.078;13.740;2022-08-18T01:56:20;6.30;;;4.47;;
14603;SDS011;7388;51.078;13.740;2022-08-18T01:58:46;6.47;;;5.43;;
14603;SDS011;7388;51.078;13.740;2022-08-18T02:01:13;7.30;;;4.50;;
14603;SDS011;7388;51.078;13.740;2022-08-18T02:03:42;7.53;;;5.00;;
14603;SDS011;7388;51.078;13.740;2022-08-18T02:06:11;5.63;;;3.77;;
14603;SDS011;7388;51.078;13.740;2022-08-18T02:08:39;5.03;;;4.50;;
14603;SDS011;7388;51.078;13.740;2022-08-18T02:11:05;6.73;;;5.07;;
14603;SDS011;7388;51.078;13.740;2022-08-18T02:13:32;6.17;;;4.73;;
14603;SDS011;7388;51.078;13.740;2022-08-18T02:15:59;5.50;;;4.90;;
14603;SDS011;7388;51.078;13.740;2022-08-18T02:18:30;6.90;;;5.33;;
14603;SDS011;7388;51.078;13.740;2022-08-18T02:20:58;5.97;;;5.37;;
14603;SDS011;7388;51.078;13.740;2022-08-18T02:23:32;5.10;;;4.60;;
14603;SDS011;7388;51.078;13.740;2022-08-18T02:25:58;7.90;;;5.33;;
14603;SDS011;7388;51.078;13.740;2022-08-18T02:28:23;5.43;;;4.23;;
14603;SDS011;7388;51.078;13.740;2022-08-18T02:30:49;7.70;;;5.13;;
14603;SDS011;7388;51.078;13.740;2022-08-18T02:33:15;5.90;;;5.20;;
14603;SDS011;7388;51.078;13.740;2022-08-18T02:35:41;6.90;;;4.70;;
14603;SDS011;7388;51.078;13.740;2022-08-18T02:38:08;7.97;;;4.87;;
14603;SDS011;7388;51.078;13.740;2022-08-18T02:40:33;6.07;;;4.80;;
14603;SDS011;7388;51.078;13.740;2022-08-18T02:43:06;5.67;;;4.60;;
14603;SDS011;7388;51.078;13.740;2022-08-18T02:45:33;5.23;;;4.43;;
14603;SDS011;7388;51.078;13.740;2022-08-18T02:48:04;6.20;;;5.40;;
14603;SDS011;7388;51.078;13.740;2022-08-18T02:50:31;7.37;;;4.87;;
14603;SDS011;7388;51.078;13.740;2022-08-18T02:52:57;5.43;;;4.33;;
14603;SDS011;7388;51.078;13.740;2022-08-18T02:55:25;5.53;;;4.80;;
14603;SDS011;7388;51.078;13.740;2022-08-18T02:57:53;6.70;;;5.17;;
14603;SDS011;7388;51.078;13.740;2022-08-18T03:00:19;7.40;;;4.77;;
14603;SDS011;7388;51.078;13.740;2022-08-18T03:02:45;4.90;;;3.80;;
14603;SDS011;7388;51.078;13.740;2022-08-18T03:05:13;10.90;;;4.60;;
14603;SDS011;7388;51.078;13.740;2022-08-18T03:07:39;5.53;;;4.77;;
14603;SDS011;7388;51.078;13.740;2022-08-18T03:10:05;6.57;;;5.13;;
14603;SDS011;7388;51.078;13.740;2022-08-18T03:12:31;6.70;;;5.20;;
14603;SDS011;7388;51.078;13.740;2022-08-18T03:14:57;5.83;;;5.23;;
14603;SDS011;7388;51.078;13.740;2022-08-18T03:17:26;7.70;;;6.03;;
14603;SDS011;7388;51.078;13.740;2022-08-18T03:19:52;4.93;;;4.43;;
14603;SDS011;7388;51.078;13.740;2022-08-18T03:22:17;5.13;;;4.63;;
14603;SDS011;7388;51.078;13.740;2022-08-18T03:24:43;5.40;;;4.90;;
14603;SDS011;7388;51.078;13.740;2022-08-18T03:27:09;6.57;;;5.27;;
14603;SDS011;7388;51.078;13.740;2022-08-18T03:29:35;6.37;;;4.40;;
14603;SDS011;7388;51.078;13.740;2022-08-18T03:32:01;7.47;;;5.70;;
14603;SDS011;7388;51.078;13.740;2022-08-18T03:34:29;6.20;;;4.97;;
14603;SDS011;7388;51.078;13.740;2022-08-18T03:36:55;5.70;;;4.90;;
14603;SDS011;7388;51.078;13.740;2022-08-18T03:39:21;6.83;;;5.30;;
14603;SDS011;7388;51.078;13.740;2022-08-18T03:41:47;5.73;;;4.83;;
14603;SDS011;7388;51.078;13.740;2022-08-18T03:44:18;7.80;;;5.13;;
14603;SDS011;7388;51.078;13.740;2022-08-18T03:46:44;5.50;;;4.27;;
14603;SDS011;7388;51.078;13.740;2022-08-18T03:49:11;6.87;;;5.70;;
14603;SDS011;7388;51.078;13.740;2022-08-18T03:51:40;7.60;;;5.33;;
14603;SDS011;7388;51.078;13.740;2022-08-18T03:54:11;12.27;;;5.10;;
14603;SDS011;7388;51.078;13.740;2022-08-18T03:56:38;5.87;;;5.00;;
14603;SDS011;7388;51.078;13.740;2022-08-18T03:59:07;6.90;;;5.47;;
14603;SDS011;7388;51.078;13.740;2022-08-18T04:01:42;6.00;;;5.20;;
14603;SDS011;7388;51.078;13.740;2022-08-18T04:04:10;5.43;;;4.77;;
14603;SDS011;7388;51.078;13.740;2022-08-18T04:06:40;7.17;;;5.57;;
14603;SDS011;7388;51.078;13.740;2022-08-18T04:09:14;8.60;;;5.83;;
14603;SDS011;7388;51.078;13.740;2022-08-18T04:11:41;6.77;;;5.40;;
14603;SDS011;7388;51.078;13.740;2022-08-18T04:14:08;7.30;;;5.47;;
14603;SDS011;7388;51.078;13.740;2022-08-18T04:16:36;5.43;;;4.27;;
14603;SDS011;7388;51.078;13.740;2022-08-18T04:19:03;7.03;;;5.70;;
14603;SDS011;7388;51.078;13.740;2022-08-18T04:21:30;6.07;;;5.40;;
14603;SDS011;7388;51.078;13.740;2022-08-18T04:23:58;8.60;;;6.00;;
14603;SDS011;7388;51.078;13.740;2022-08-18T04:26:32;10.10;;;6.30;;
14603;SDS011;7388;51.078;13.740;2022-08-18T04:29:00;6.90;;;6.07;;
14603;SDS011;7388;51.078;13.740;2022-08-18T04:31:26;6.80;;;6.10;;
14603;SDS011;7388;51.078;13.740;2022-08-18T04:33:54;8.97;;;6.13;;
14603;SDS011;7388;51.078;13.740;2022-08-18T04:36:20;6.90;;;6.20;;
14603;SDS011;7388;51.078;13.740;2022-08-18T04:38:46;6.87;;;5.10;;
14603;SDS011;7388;51.078;13.740;2022-08-18T04:41:12;6.50;;;5.73;;
14603;SDS011;7388;51.078;13.740;2022-08-18T04:43:39;6.60;;;5.10;;
14603;SDS011;7388;51.078;13.740;2022-08-18T04:46:06;6.73;;;6.03;;
14603;SDS011;7388;51.078;13.740;2022-08-18T04:48:33;7.60;;;5.73;;
14603;SDS011;7388;51.078;13.740;2022-08-18T04:53:34;6.50;;;5.33;;
14603;SDS011;7388;51.078;13.740;2022-08-18T04:56:16;11.00;;;5.57;;
14603;SDS011;7388;51.078;13.740;2022-08-18T04:58:51;7.60;;;5.33;;
14603;SDS011;7388;51.078;13.740;2022-08-18T05:01:19;8.77;;;5.47;;
14603;SDS011;7388;51.078;13.740;2022-08-18T05:03:47;7.10;;;5.80;;
14603;SDS011;7388;51.078;13.740;2022-08-18T05:06:14;6.40;;;5.37;;
14603;SDS011;7388;51.078;13.740;2022-08-18T05:08:40;7.40;;;5.23;;
14603;SDS011;7388;51.078;13.740;2022-08-18T05:11:05;4.97;;;4.13;;
14603;SDS011;7388;51.078;13.740;2022-08-18T05:13:31;8.17;;;5.37;;
14603;SDS011;7388;51.078;13.740;2022-08-18T05:15:58;6.13;;;5.50;;
14603;SDS011;7388;51.078;13.740;2022-08-18T05:18:32;7.97;;;6.10;;
14603;SDS011;7388;51.078;13.740;2022-08-18T05:21:00;9.90;;;4.53;;
14603;SDS011;7388;51.078;13.740;2022-08-18T05:23:26;7.13;;;5.57;;
14603;SDS011;7388;51.078;13.740;2022-08-18T05:25:57;5.77;;;4.90;;
14603;SDS011;7388;51.078;13.740;2022-08-18T05:28:25;7.17;;;5.67;;
14603;SDS011;7388;51.078;13.740;2022-08-18T05:30:51;6.07;;;4.73;;
14603;SDS011;7388;51.078;13.740;2022-08-18T05:33:18;6.33;;;5.10;;
14603;SDS011;7388;51.078;13.740;2022-08-18T05:35:45;7.13;;;5.20;;
14603;SDS011;7388;51.078;13.740;2022-08-18T05:41:25;9.33;;;5.73;;
14603;SDS011;7388;51.078;13.740;2022-08-18T05:43:53;6.43;;;5.83;;
14603;SDS011;7388;51.078;13.740;2022-08-18T05:46:25;6.90;;;5.40;;
14603;SDS011;7388;51.078;13.740;2022-08-18T05:49:02;8.20;;;4.90;;
14603;SDS011;7388;51.078;13.740;2022-08-18T05:51:30;7.03;;;5.13;;
14603;SDS011;7388;51.078;13.740;2022-08-18T05:54:08;9.20;;;5.33;;
14603;SDS011;7388;51.078;13.740;2022-08-18T05:56:54;7.37;;;5.00;;
14603;SDS011;7388;51.078;13.740;2022-08-18T05:59:25;6.73;;;5.40;;
14603;SDS011;7388;51.078;13.740;2022-08-18T06:04:33;6.93;;;5.07;;
14603;SDS011;7388;51.078;13.740;2022-08-18T06:07:06;4.97;;;4.30;;
14603;SDS011;7388;51.078;13.740;2022-08-18T06:09:37;9.23;;;6.00;;
14603;SDS011;7388;51.078;13.740;2022-08-18T06:15:00;7.40;;;5.33;;
14603;SDS011;7388;51.078;13.740;2022-08-18T06:22:52;7.47;;;5.70;;
14603;SDS011;7388;51.078;13.740;2022-08-18T06:28:33;7.37;;;5.47;;
14603;SDS011;7388;51.078;13.740;2022-08-18T06:31:33;9.23;;;6.03;;
14603;SDS011;7388;51.078;13.740;2022-08-18T06:34:14;8.80;;;4.97;;
14603;SDS011;7388;51.078;13.740;2022-08-18T06:39:25;7.70;;;6.53;;
14603;SDS011;7388;51.078;13.740;2022-08-18T06:42:17;11.27;;;5.80;;
14603;SDS011;7388;51.078;13.740;2022-08-18T06:44:54;8.43;;;6.37;;
14603;SDS011;7388;51.078;13.740;2022-08-18T06:50:13;6.80;;;5.77;;
14603;SDS011;7388;51.078;13.740;2022-08-18T06:53:05;10.10;;;5.67;;
14603;SDS011;7388;51.078;13.740;2022-08-18T06:55:37;8.00;;;5.60;;
14603;SDS011;7388;51.078;13.740;2022-08-18T06:58:20;6.40;;;5.70;;
14603;SDS011;7388;51.078;13.740;2022-08-18T07:00:55;6.27;;;5.60;;
14603;SDS011;7388;51.078;13.740;2022-08-18T07:06:07;6.50;;;5.50;;
14603;SDS011;7388;51.078;13.740;2022-08-18T07:08:54;6.53;;;5.90;;
14603;SDS011;7388;51.078;13.740;2022-08-18T07:11:40;8.17;;;6.10;;
14603;SDS011;7388;51.078;13.740;2022-08-18T07:14:21;8.33;;;5.80;;
14603;SDS011;7388;51.078;13.740;2022-08-18T07:16:49;9.30;;;5.70;;
14603;SDS011;7388;51.078;13.740;2022-08-18T07:19:30;6.43;;;5.53;;
14603;SDS011;7388;51.078;13.740;2022-08-18T07:22:10;8.27;;;6.30;;
14603;SDS011;7388;51.078;13.740;2022-08-18T07:24:42;6.60;;;5.00;;
14603;SDS011;7388;51.078;13.740;2022-08-18T07:32:47;5.90;;;5.30;;
14603;SDS011;7388;51.078;13.740;2022-08-18T07:35:21;6.93;;;5.57;;
14603;SDS011;7388;51.078;13.740;2022-08-18T07:37:56;7.70;;;5.23;;
14603;SDS011;7388;51.078;13.740;2022-08-18T07:40:34;7.37;;;6.20;;
14603;SDS011;7388;51.078;13.740;2022-08-18T07:43:05;6.60;;;5.70;;
14603;SDS011;7388;51.078;13.740;2022-08-18T07:45:40;5.90;;;5.30;;
14603;SDS011;7388;51.078;13.740;2022-08-18T07:51:17;7.13;;;5.97;;
14603;SDS011;7388;51.078;13.740;2022-08-18T07:54:03;6.53;;;4.90;;
14603;SDS011;7388;51.078;13.740;2022-08-18T08:07:54;6.73;;;5.73;;
14603;SDS011;7388;51.078;13.740;2022-08-18T08:16:04;8.73;;;6.60;;
14603;SDS011;7388;51.078;13.740;2022-08-18T08:18:43;9.30;;;5.40;;
14603;SDS011;7388;51.078;13.740;2022-08-18T08:21:36;12.60;;;7.07;;
14603;SDS011;7388;51.078;13.740;2022-08-18T08:29:21;6.63;;;5.77;;
14603;SDS011;7388;51.078;13.740;2022-08-18T08:32:02;5.67;;;4.90;;
14603;SDS011;7388;51.078;13.740;2022-08-18T08:34:33;6.73;;;5.20;;
14603;SDS011;7388;51.078;13.740;2022-08-18T08:37:20;6.50;;;5.60;;
14603;SDS011;7388;51.078;13.740;2022-08-18T08:39:56;8.77;;;6.63;;
14603;SDS011;7388;51.078;13.740;2022-08-18T08:42:40;6.63;;;5.90;;
14603;SDS011;7388;51.078;13.740;2022-08-18T08:45:11;6.60;;;5.50;;
14603;SDS011;7388;51.078;13.740;2022-08-18T08:48:19;6.63;;;5.20;;
14603;SDS011;7388;51.078;13.740;2022-08-18T08:50:51;9.73;;;6.60;;
14603;SDS011;7388;51.078;13.740;2022-08-18T08:53:37;8.23;;;5.43;;
14603;SDS011;7388;51.078;13.740;2022-08-18T08:56:32;6.30;;;5.03;;
14603;SDS011;7388;51.078;13.740;2022-08-18T08:59:05;6.80;;;5.50;;
14603;SDS011;7388;51.078;13.740;2022-08-18T09:12:34;10.23;;;5.77;;
14603;SDS011;7388;51.078;13.740;2022-08-18T09:17:54;6.93;;;5.87;;
14603;SDS011;7388;51.078;13.740;2022-08-18T09:21:04;8.63;;;5.30;;
14603;SDS011;7388;51.078;13.740;2022-08-18T09:23:42;5.77;;;5.03;;
14603;SDS011;7388;51.078;13.740;2022-08-18T09:29:23;9.60;;;5.97;;
14603;SDS011;7388;51.078;13.740;2022-08-18T09:35:08;7.70;;;5.73;;
14603;SDS011;7388;51.078;13.740;2022-08-18T09:37:57;5.80;;;4.93;;
14603;SDS011;7388;51.078;13.740;2022-08-18T09:40:46;5.83;;;4.80;;
14603;SDS011;7388;51.078;13.740;2022-08-18T09:46:17;10.80;;;6.13;;
14603;SDS011;7388;51.078;13.740;2022-08-18T09:52:00;7.87;;;6.43;;
14603;SDS011;7388;51.078;13.740;2022-08-18T09:57:24;7.33;;;5.77;;
14603;SDS011;7388;51.078;13.740;2022-08-18T09:59:57;14.27;;;6.53;;
14603;SDS011;7388;51.078;13.740;2022-08-18T10:10:43;7.77;;;6.27;;
14603;SDS011;7388;51.078;13.740;2022-08-18T10:24:52;7.30;;;5.10;;
14603;SDS011;7388;51.078;13.740;2022-08-18T10:33:09;6.20;;;4.50;;
14603;SDS011;7388;51.078;13.740;2022-08-18T10:38:05;7.90;;;4.80;;
14603;SDS011;7388;51.078;13.740;2022-08-18T10:40:53;8.33;;;4.97;;
14603;SDS011;7388;51.078;13.740;2022-08-18T10:43:28;6.20;;;5.60;;
14603;SDS011;7388;51.078;13.740;2022-08-18T10:45:59;14.03;;;5.77;;
14603;SDS011;7388;51.078;13.740;2022-08-18T10:48:27;6.03;;;4.77;;
14603;SDS011;7388;51.078;13.740;2022-08-18T11:06:56;6.13;;;4.90;;
14603;SDS011;7388;51.078;13.740;2022-08-18T11:09:29;5.70;;;5.10;;
14603;SDS011;7388;51.078;13.740;2022-08-18T11:12:00;4.90;;;4.23;;
14603;SDS011;7388;51.078;13.740;2022-08-18T11:17:47;8.03;;;5.57;;
14603;SDS011;7388;51.078;13.740;2022-08-18T11:20:21;6.57;;;5.07;;
14603;SDS011;7388;51.078;13.740;2022-08-18T11:22:52;6.50;;;5.37;;
14603;SDS011;7388;51.078;13.740;2022-08-18T11:25:25;5.30;;;4.50;;
14603;SDS011;7388;51.078;13.740;2022-08-18T11:27:53;9.77;;;4.47;;
14603;SDS011;7388;51.078;13.740;2022-08-18T11:30:20;6.67;;;5.40;;
14603;SDS011;7388;51.078;13.740;2022-08-18T11:32:49;6.90;;;5.37;;
14603;SDS011;7388;51.078;13.740;2022-08-18T11:35:17;5.80;;;4.70;;
14603;SDS011;7388;51.078;13.740;2022-08-18T11:37:53;9.33;;;5.10;;
14603;SDS011;7388;51.078;13.740;2022-08-18T11:40:24;7.37;;;5.30;;
14603;SDS011;7388;51.078;13.740;2022-08-18T11:43:09;6.40;;;4.33;;
14603;SDS011;7388;51.078;13.740;2022-08-18T11:48:31;7.30;;;5.83;;
14603;SDS011;7388;51.078;13.740;2022-08-18T11:51:09;6.10;;;5.20;;
14603;SDS011;7388;51.078;13.740;2022-08-18T11:56:34;6.53;;;5.30;;
14603;SDS011;7388;51.078;13.740;2022-08-18T11:59:01;6.03;;;4.80;;
14603;SDS011;7388;51.078;13.740;2022-08-18T12:17:18;6.50;;;5.40;;
14603;SDS011;7388;51.078;13.740;2022-08-18T12:19:44;6.00;;;5.40;;
14603;SDS011;7388;51.078;13.740;2022-08-18T12:22:14;6.53;;;5.00;;
14603;SDS011;7388;51.078;13.740;2022-08-18T12:24:48;10.00;;;5.70;;
14603;SDS011;7388;51.078;13.740;2022-08-18T12:27:15;8.77;;;4.93;;
14603;SDS011;7388;51.078;13.740;2022-08-18T12:29:43;7.07;;;5.00;;
14603;SDS011;7388;51.078;13.740;2022-08-18T12:32:09;6.47;;;5.77;;
14603;SDS011;7388;51.078;13.740;2022-08-18T12:34:35;7.37;;;6.00;;
14603;SDS011;7388;51.078;13.740;2022-08-18T12:37:02;6.93;;;5.70;;
14603;SDS011;7388;51.078;13.740;2022-08-18T12:39:28;6.93;;;6.27;;
14603;SDS011;7388;51.078;13.740;2022-08-18T12:41:55;5.57;;;5.07;;
14603;SDS011;7388;51.078;13.740;2022-08-18T12:44:22;7.53;;;5.20;;
14603;SDS011;7388;51.078;13.740;2022-08-18T12:46:48;10.40;;;5.10;;
14603;SDS011;7388;51.078;13.740;2022-08-18T12:49:15;5.53;;;4.93;;
14603;SDS011;7388;51.078;13.740;2022-08-18T12:51:43;6.20;;;5.40;;
14603;SDS011;7388;51.078;13.740;2022-08-18T12:54:09;7.47;;;5.17;;
14603;SDS011;7388;51.078;13.740;2022-08-18T12:56:35;7.63;;;4.73;;
14603;SDS011;7388;51.078;13.740;2022-08-18T12:59:03;6.70;;;4.83;;
14603;SDS011;7388;51.078;13.740;2022-08-18T13:01:30;8.10;;;4.47;;
14603;SDS011;7388;51.078;13.740;2022-08-18T13:04:00;10.40;;;5.60;;
14603;SDS011;7388;51.078;13.740;2022-08-18T13:06:27;6.90;;;5.07;;
14603;SDS011;7388;51.078;13.740;2022-08-18T13:08:55;7.00;;;5.60;;
14603;SDS011;7388;51.078;13.740;2022-08-18T13:11:21;5.50;;;4.70;;
14603;SDS011;7388;51.078;13.740;2022-08-18T13:13:48;8.20;;;5.73;;
14603;SDS011;7388;51.078;13.740;2022-08-18T13:16:15;9.37;;;5.20;;
14603;SDS011;7388;51.078;13.740;2022-08-18T13:18:42;8.60;;;5.70;;
14603;SDS011;7388;51.078;13.740;2022-08-18T13:21:12;6.40;;;5.40;;
14603;SDS011;7388;51.078;13.740;2022-08-18T13:23:39;6.03;;;5.43;;
14603;SDS011;7388;51.078;13.740;2022-08-18T13:26:07;6.90;;;6.03;;
14603;SDS011;7388;51.078;13.740;2022-08-18T13:28:45;10.07;;;6.80;;
14603;SDS011;7388;51.078;13.740;2022-08-18T13:31:11;6.20;;;5.60;;
14603;SDS011;7388;51.078;13.740;2022-08-18T13:33:37;6.33;;;5.70;;
14603;SDS011;7388;51.078;13.740;2022-08-18T13:36:04;7.13;;;4.83;;
14603;SDS011;7388;51.078;13.740;2022-08-18T13:38:30;7.10;;;5.10;;
14603;SDS011;7388;51.078;13.740;2022-08-18T13:40:57;6.13;;;5.53;;
14603;SDS011;7388;51.078;13.740;2022-08-18T13:43:31;9.10;;;5.97;;
14603;SDS011;7388;51.078;13.740;2022-08-18T13:46:00;7.87;;;7.07;;
14603;SDS011;7388;51.078;13.740;2022-08-18T13:48:27;6.50;;;5.90;;
14603;SDS011;7388;51.078;13.740;2022-08-18T13:50:54;7.13;;;5.83;;
14603;SDS011;7388;51.078;13.740;2022-08-18T13:53:23;6.17;;;5.57;;
14603;SDS011;7388;51.078;13.740;2022-08-18T13:55:50;8.13;;;6.43;;
14603;SDS011;7388;51.078;13.740;2022-08-18T13:58:22;8.70;;;6.03;;
14603;SDS011;7388;51.078;13.740;2022-08-18T14:00:59;7.17;;;6.33;;
14603;SDS011;7388;51.078;13.740;2022-08-18T14:03:29;7.03;;;5.57;;
14603;SDS011;7388;51.078;13.740;2022-08-18T14:05:56;5.77;;;5.27;;
14603;SDS011;7388;51.078;13.740;2022-08-18T14:08:24;9.10;;;5.70;;
14603;SDS011;7388;51.078;13.740;2022-08-18T14:10:52;10.10;;;6.47;;
14603;SDS011;7388;51.078;13.740;2022-08-18T14:13:20;7.80;;;6.23;;
14603;SDS011;7388;51.078;13.740;2022-08-18T14:15:47;6.97;;;5.80;;
14603;SDS011;7388;51.078;13.740;2022-08-18T14:18:14;7.10;;;5.60;;
14603;SDS011;7388;51.078;13.740;2022-08-18T14:20:40;8.80;;;6.13;;
14603;SDS011;7388;51.078;13.740;2022-08-18T14:23:25;6.93;;;6.20;;
14603;SDS011;7388;51.078;13.740;2022-08-18T14:26:09;11.63;;;5.77;;
14603;SDS011;7388;51.078;13.740;2022-08-18T14:28:53;11.03;;;7.50;;
14603;SDS011;7388;51.078;13.740;2022-08-18T14:31:19;7.63;;;5.70;;
14603;SDS011;7388;51.078;13.740;2022-08-18T14:33:45;7.53;;;5.73;;
14603;SDS011;7388;51.078;13.740;2022-08-18T14:36:12;7.00;;;5.90;;
14603;SDS011;7388;51.078;13.740;2022-08-18T14:38:39;5.63;;;5.03;;
14603;SDS011;7388;51.078;13.740;2022-08-18T14:41:06;7.20;;;6.50;;
14603;SDS011;7388;51.078;13.740;2022-08-18T14:43:33;6.77;;;6.07;;
14603;SDS011;7388;51.078;13.740;2022-08-18T14:46:03;7.00;;;6.20;;
14603;SDS011;7388;51.078;13.740;2022-08-18T14:48:29;11.63;;;6.50;;
14603;SDS011;7388;51.078;13.740;2022-08-18T14:50:56;7.80;;;6.30;;
14603;SDS011;7388;51.078;13.740;2022-08-18T14:53:26;8.50;;;7.10;;
14603;SDS011;7388;51.078;13.740;2022-08-18T14:55:55;10.77;;;6.90;;
14603;SDS011;7388;51.078;13.740;2022-08-18T14:58:22;13.80;;;8.70;;
14603;SDS011;7388;51.078;13.740;2022-08-18T15:00:53;7.90;;;7.10;;
14603;SDS011;7388;51.078;13.740;2022-08-18T15:03:21;11.57;;;7.60;;
14603;SDS011;7388;51.078;13.740;2022-08-18T15:05:47;8.30;;;6.20;;
14603;SDS011;7388;51.078;13.740;2022-08-18T15:08:13;13.43;;;9.90;;
14603;SDS011;7388;51.078;13.740;2022-08-18T15:10:40;7.33;;;6.63;;
14603;SDS011;7388;51.078;13.740;2022-08-18T15:13:06;7.90;;;7.10;;
14603;SDS011;7388;51.078;13.740;2022-08-18T15:15:33;7.07;;;5.53;;
14603;SDS011;7388;51.078;13.740;2022-08-18T15:17:59;7.47;;;6.60;;
14603;SDS011;7388;51.078;13.740;2022-08-18T15:20:25;7.30;;;6.33;;
14603;SDS011;7388;51.078;13.740;2022-08-18T15:22:52;7.53;;;6.83;;
14603;SDS011;7388;51.078;13.740;2022-08-18T15:25:36;7.03;;;6.03;;
14603;SDS011;7388;51.078;13.740;2022-08-18T15:28:12;8.13;;;6.57;;
14603;SDS011;7388;51.078;13.740;2022-08-18T15:30:42;6.13;;;5.30;;
14603;SDS011;7388;51.078;13.740;2022-08-18T15:33:09;7.10;;;6.40;;
14603;SDS011;7388;51.078;13.740;2022-08-18T15:35:35;8.37;;;7.00;;
14603;SDS011;7388;51.078;13.740;2022-08-18T15:41:03;7.07;;;6.37;;
14603;SDS011;7388;51.078;13.740;2022-08-18T15:43:30;12.67;;;7.03;;
14603;SDS011;7388;51.078;13.740;2022-08-18T15:45:56;7.53;;;6.83;;
14603;SDS011;7388;51.078;13.740;2022-08-18T15:48:24;8.43;;;6.10;;
14603;SDS011;7388;51.078;13.740;2022-08-18T15:50:52;7.07;;;6.33;;
14603;SDS011;7388;51.078;13.740;2022-08-18T15:53:19;13.33;;;8.13;;
14603;SDS011;7388;51.078;13.740;2022-08-18T15:55:47;13.07;;;6.80;;
14603;SDS011;7388;51.078;13.740;2022-08-18T15:58:13;14.83;;;6.70;;
14603;SDS011;7388;51.078;13.740;2022-08-18T16:00:40;9.00;;;5.60;;
14603;SDS011;7388;51.078;13.740;2022-08-18T16:03:09;7.50;;;6.80;;
14603;SDS011;7388;51.078;13.740;2022-08-18T16:05:39;6.73;;;5.93;;
14603;SDS011;7388;51.078;13.740;2022-08-18T16:08:17;7.27;;;6.60;;
14603;SDS011;7388;51.078;13.740;2022-08-18T16:10:48;7.73;;;6.33;;
14603;SDS011;7388;51.078;13.740;2022-08-18T16:13:14;8.33;;;7.50;;
14603;SDS011;7388;51.078;13.740;2022-08-18T16:15:41;8.43;;;7.50;;
14603;SDS011;7388;51.078;13.740;2022-08-18T16:18:10;8.77;;;7.03;;
14603;SDS011;7388;51.078;13.740;2022-08-18T16:20:37;9.13;;;5.97;;
14603;SDS011;7388;51.078;13.740;2022-08-18T16:23:03;9.40;;;6.20;;
14603;SDS011;7388;51.078;13.740;2022-08-18T16:25:29;7.53;;;6.77;;
14603;SDS011;7388;51.078;13.740;2022-08-18T16:27:57;8.87;;;6.93;;
14603;SDS011;7388;51.078;13.740;2022-08-18T16:30:25;8.67;;;6.77;;
14603;SDS011;7388;51.078;13.740;2022-08-18T16:32:52;7.60;;;6.80;;
14603;SDS011;7388;51.078;13.740;2022-08-18T16:35:19;8.47;;;6.50;;
14603;SDS011;7388;51.078;13.740;2022-08-18T16:37:47;9.10;;;6.80;;
14603;SDS011;7388;51.078;13.740;2022-08-18T16:40:14;10.30;;;6.47;;
14603;SDS011;7388;51.078;13.740;2022-08-18T16:42:42;9.03;;;7.40;;
14603;SDS011;7388;51.078;13.740;2022-08-18T16:45:08;7.40;;;6.70;;
14603;SDS011;7388;51.078;13.740;2022-08-18T16:47:35;8.13;;;7.33;;
14603;SDS011;7388;51.078;13.740;2022-08-18T16:50:12;8.13;;;7.30;;
14603;SDS011;7388;51.078;13.740;2022-08-18T16:52:40;9.13;;;6.60;;
14603;SDS011;7388;51.078;13.740;2022-08-18T16:55:07;6.90;;;6.20;;
14603;SDS011;7388;51.078;13.740;2022-08-18T16:57:36;7.60;;;6.80;;
14603;SDS011;7388;51.078;13.740;2022-08-18T17:00:22;7.60;;;6.87;;
14603;SDS011;7388;51.078;13.740;2022-08-18T17:03:07;7.77;;;6.20;;
14603;SDS011;7388;51.078;13.740;2022-08-18T17:06:02;9.50;;;7.47;;
14603;SDS011;7388;51.078;13.740;2022-08-18T17:08:30;9.50;;;7.57;;
14603;SDS011;7388;51.078;13.740;2022-08-18T17:10:59;13.80;;;7.10;;
14603;SDS011;7388;51.078;13.740;2022-08-18T17:13:25;7.93;;;6.50;;
14603;SDS011;7388;51.078;13.740;2022-08-18T17:15:51;9.63;;;7.80;;
14603;SDS011;7388;51.078;13.740;2022-08-18T17:18:17;7.77;;;6.53;;
14603;SDS011;7388;51.078;13.740;2022-08-18T17:20:44;9.50;;;7.20;;
14603;SDS011;7388;51.078;13.740;2022-08-18T17:23:10;7.30;;;6.10;;
14603;SDS011;7388;51.078;13.740;2022-08-18T17:25:36;12.37;;;8.70;;
14603;SDS011;7388;51.078;13.740;2022-08-18T17:28:03;8.40;;;7.27;;
14603;SDS011;7388;51.078;13.740;2022-08-18T17:30:30;8.00;;;7.30;;
14603;SDS011;7388;51.078;13.740;2022-08-18T17:33:01;8.50;;;7.60;;
14603;SDS011;7388;51.078;13.740;2022-08-18T17:35:34;8.77;;;7.10;;
14603;SDS011;7388;51.078;13.740;2022-08-18T17:38:06;9.93;;;7.50;;
14603;SDS011;7388;51.078;13.740;2022-08-18T17:40:38;8.30;;;7.27;;
14603;SDS011;7388;51.078;13.740;2022-08-18T17:43:14;7.60;;;6.70;;
14603;SDS011;7388;51.078;13.740;2022-08-18T17:45:55;8.27;;;7.47;;
14603;SDS011;7388;51.078;13.740;2022-08-18T17:48:27;8.50;;;7.67;;